sensor_id;sensor_type;location;lat;lon;timestamp;temperature;humidity
52565;DHT22;38460;53.106;7.004;2022-12-07T00:02:20;2.70;99.90
52565;DHT22;38460;53.106;7.004;2022-12-07T00:04:48;2.70;99.90
52565;DHT22;38460;53.106;7.004;2022-12-07T00:07:13;2.60;99.90
52565;DHT22;38460;53.106;7.004;2022-12-07T00:09:39;2.60;99.90
52565;DHT22;38460;53.106;7.004;2022-12-07T00:12:07;2.60;99.90
52565;DHT22;38460;53.106;7.004;2022-12-07T00:14:33;2.60;99.90
52565;DHT22;38460;53.106;7.004;2022-12-07T00:16:59;2.60;99.90
52565;DHT22;38460;53.106;7.004;2022-12-07T00:19:25;2.60;99.90
52565;DHT22;38460;53.106;7.004;2022-12-07T00:21:50;2.60;99.90
52565;DHT22;38460;53.106;7.004;2022-12-07T00:24:16;2.60;99.90
52565;DHT22;38460;53.106;7.004;2022-12-07T00:26:42;2.70;99.90
52565;DHT22;38460;53.106;7.004;2022-12-07T00:29:16;2.80;99.90
52565;DHT22;38460;53.106;7.004;2022-12-07T00:31:42;2.60;99.90
52565;DHT22;38460;53.106;7.004;2022-12-07T00:34:15;2.60;99.90
52565;DHT22;38460;53.106;7.004;2022-12-07T00:36:41;2.60;99.90
52565;DHT22;38460;53.106;7.004;2022-12-07T00:39:07;2.60;99.90
52565;DHT22;38460;53.106;7.004;2022-12-07T00:41:34;2.70;99.90
52565;DHT22;38460;53.106;7.004;2022-12-07T00:43:59;2.60;99.90
52565;DHT22;38460;53.106;7.004;2022-12-07T00:46:26;2.70;99.90
52565;DHT22;38460;53.106;7.004;2022-12-07T00:48:52;2.60;99.90
52565;DHT22;38460;53.106;7.004;2022-12-07T00:51:22;2.60;99.90
52565;DHT22;38460;53.106;7.004;2022-12-07T00:53:49;2.60;99.90
52565;DHT22;38460;53.106;7.004;2022-12-07T00:56:19;2.60;99.90
52565;DHT22;38460;53.106;7.004;2022-12-07T00:59:02;2.60;99.90
52565;DHT22;38460;53.106;7.004;2022-12-07T01:01:31;2.60;99.90
52565;DHT22;38460;53.106;7.004;2022-12-07T01:03:57;2.70;99.90
52565;DHT22;38460;53.106;7.004;2022-12-07T01:06:24;2.70;99.90
52565;DHT22;38460;53.106;7.004;2022-12-07T01:08:50;2.70;99.90
52565;DHT22;38460;53.106;7.004;2022-12-07T01:11:19;2.70;99.90
52565;DHT22;38460;53.106;7.004;2022-12-07T01:13:45;2.80;99.90
52565;DHT22;38460;53.106;7.004;2022-12-07T01:16:16;2.80;99.90
52565;DHT22;38460;53.106;7.004;2022-12-07T01:18:45;2.80;99.90
52565;DHT22;38460;53.106;7.004;2022-12-07T01:21:13;2.80;99.90
52565;DHT22;38460;53.106;7.004;2022-12-07T01:23:39;2.90;99.90
52565;DHT22;38460;53.106;7.004;2022-12-07T01:26:11;2.80;99.90
52565;DHT22;38460;53.106;7.004;2022-12-07T01:28:38;2.80;99.90
52565;DHT22;38460;53.106;7.004;2022-12-07T01:31:13;2.80;99.90
52565;DHT22;38460;53.106;7.004;2022-12-07T01:33:41;2.80;99.90
52565;DHT22;38460;53.106;7.004;2022-12-07T01:36:30;2.80;99.90
52565;DHT22;38460;53.106;7.004;2022-12-07T01:38:57;2.90;99.90
52565;DHT22;38460;53.106;7.004;2022-12-07T01:41:25;2.90;99.90
52565;DHT22;38460;53.106;7.004;2022-12-07T01:44:09;2.90;99.90
52565;DHT22;38460;53.106;7.004;2022-12-07T01:46:35;2.90;99.90
52565;DHT22;38460;53.106;7.004;2022-12-07T01:49:01;2.90;99.90
52565;DHT22;38460;53.106;7.004;2022-12-07T01:51:29;3.00;99.90
52565;DHT22;38460;53.106;7.004;2022-12-07T01:53:55;3.20;99.90
52565;DHT22;38460;53.106;7.004;2022-12-07T01:56:24;3.00;99.90
52565;DHT22;38460;53.106;7.004;2022-12-07T01:58:52;3.00;99.90
52565;DHT22;38460;53.106;7.004;2022-12-07T02:01:19;2.90;99.90
52565;DHT22;38460;53.106;7.004;2022-12-07T02:03:45;3.00;99.90
52565;DHT22;38460;53.106;7.004;2022-12-07T02:06:16;2.90;99.90
52565;DHT22;38460;53.106;7.004;2022-12-07T02:08:43;2.90;99.90
52565;DHT22;38460;53.106;7.004;2022-12-07T02:11:09;2.90;99.90
52565;DHT22;38460;53.106;7.004;2022-12-07T02:13:38;2.90;99.90
52565;DHT22;38460;53.106;7.004;2022-12-07T02:21:22;3.00;99.90
52565;DHT22;38460;53.106;7.004;2022-12-07T02:34:30;3.10;99.90
52565;DHT22;38460;53.106;7.004;2022-12-07T02:36:57;3.10;99.90
52565;DHT22;38460;53.106;7.004;2022-12-07T02:39:37;3.10;99.90
52565;DHT22;38460;53.106;7.004;2022-12-07T02:42:13;3.10;99.90
52565;DHT22;38460;53.106;7.004;2022-12-07T02:44:41;3.10;99.90
52565;DHT22;38460;53.106;7.004;2022-12-07T02:47:10;3.00;99.90
52565;DHT22;38460;53.106;7.004;2022-12-07T02:49:38;2.90;99.90
52565;DHT22;38460;53.106;7.004;2022-12-07T02:52:04;2.90;99.90
52565;DHT22;38460;53.106;7.004;2022-12-07T02:54:30;2.90;99.90
52565;DHT22;38460;53.106;7.004;2022-12-07T03:02:49;2.70;99.90
52565;DHT22;38460;53.106;7.004;2022-12-07T03:05:42;2.70;99.90
52565;DHT22;38460;53.106;7.004;2022-12-07T03:11:04;2.60;99.90
52565;DHT22;38460;53.106;7.004;2022-12-07T03:16:39;3.40;99.90
52565;DHT22;38460;53.106;7.004;2022-12-07T03:19:10;2.50;99.90
52565;DHT22;38460;53.106;7.004;2022-12-07T03:21:39;2.50;99.90
52565;DHT22;38460;53.106;7.004;2022-12-07T03:24:12;2.50;99.90
52565;DHT22;38460;53.106;7.004;2022-12-07T03:26:44;2.50;99.90
52565;DHT22;38460;53.106;7.004;2022-12-07T03:29:20;2.60;99.90
52565;DHT22;38460;53.106;7.004;2022-12-07T03:31:51;2.60;99.90
52565;DHT22;38460;53.106;7.004;2022-12-07T03:34:32;2.80;99.90
52565;DHT22;38460;53.106;7.004;2022-12-07T03:37:33;2.60;99.90
52565;DHT22;38460;53.106;7.004;2022-12-07T03:42:48;2.60;99.90
52565;DHT22;38460;53.106;7.004;2022-12-07T03:45:15;2.60;99.90
52565;DHT22;38460;53.106;7.004;2022-12-07T03:48:59;2.70;99.90
52565;DHT22;38460;53.106;7.004;2022-12-07T03:53:43;2.70;99.90
52565;DHT22;38460;53.106;7.004;2022-12-07T03:56:10;2.70;99.90
52565;DHT22;38460;53.106;7.004;2022-12-07T03:58:38;2.70;99.90
52565;DHT22;38460;53.106;7.004;2022-12-07T04:01:04;2.60;99.90
52565;DHT22;38460;53.106;7.004;2022-12-07T04:03:30;2.60;99.90
52565;DHT22;38460;53.106;7.004;2022-12-07T04:05:56;2.60;99.90
52565;DHT22;38460;53.106;7.004;2022-12-07T04:08:23;2.60;99.90
52565;DHT22;38460;53.106;7.004;2022-12-07T04:10:49;2.60;99.90
52565;DHT22;38460;53.106;7.004;2022-12-07T04:13:15;2.60;99.90
52565;DHT22;38460;53.106;7.004;2022-12-07T04:15:40;2.60;99.90
52565;DHT22;38460;53.106;7.004;2022-12-07T04:18:06;2.60;99.90
52565;DHT22;38460;53.106;7.004;2022-12-07T04:20:32;2.60;99.90
52565;DHT22;38460;53.106;7.004;2022-12-07T04:22:58;2.60;99.90
52565;DHT22;38460;53.106;7.004;2022-12-07T04:25:23;2.90;99.90
52565;DHT22;38460;53.106;7.004;2022-12-07T04:27:49;2.60;99.90
52565;DHT22;38460;53.106;7.004;2022-12-07T04:30:15;2.60;99.90
52565;DHT22;38460;53.106;7.004;2022-12-07T04:32:41;2.60;99.90
52565;DHT22;38460;53.106;7.004;2022-12-07T04:35:07;2.80;99.90
52565;DHT22;38460;53.106;7.004;2022-12-07T04:37:33;2.60;99.90
52565;DHT22;38460;53.106;7.004;2022-12-07T04:39:58;2.60;99.90
52565;DHT22;38460;53.106;7.004;2022-12-07T04:42:24;2.60;99.90
52565;DHT22;38460;53.106;7.004;2022-12-07T04:44:50;2.50;99.90
52565;DHT22;38460;53.106;7.004;2022-12-07T04:47:17;2.50;99.90
52565;DHT22;38460;53.106;7.004;2022-12-07T04:49:42;2.40;99.90
52565;DHT22;38460;53.106;7.004;2022-12-07T04:52:08;2.40;99.90
52565;DHT22;38460;53.106;7.004;2022-12-07T04:54:34;2.40;99.90
52565;DHT22;38460;53.106;7.004;2022-12-07T04:56:59;2.40;99.90
52565;DHT22;38460;53.106;7.004;2022-12-07T04:59:25;2.50;99.90
52565;DHT22;38460;53.106;7.004;2022-12-07T05:01:51;2.50;99.90
52565;DHT22;38460;53.106;7.004;2022-12-07T05:04:17;2.50;99.90
52565;DHT22;38460;53.106;7.004;2022-12-07T05:06:43;2.50;99.90
52565;DHT22;38460;53.106;7.004;2022-12-07T05:09:09;2.60;99.90
52565;DHT22;38460;53.106;7.004;2022-12-07T05:11:35;2.60;99.90
52565;DHT22;38460;53.106;7.004;2022-12-07T05:14:09;2.60;99.90
52565;DHT22;38460;53.106;7.004;2022-12-07T05:16:36;2.60;99.90
52565;DHT22;38460;53.106;7.004;2022-12-07T05:19:02;2.70;99.90
52565;DHT22;38460;53.106;7.004;2022-12-07T05:21:28;2.70;99.90
52565;DHT22;38460;53.106;7.004;2022-12-07T05:23:54;2.70;99.90
52565;DHT22;38460;53.106;7.004;2022-12-07T05:26:20;2.70;99.90
52565;DHT22;38460;53.106;7.004;2022-12-07T05:28:51;2.70;99.90
52565;DHT22;38460;53.106;7.004;2022-12-07T05:31:17;2.70;99.90
52565;DHT22;38460;53.106;7.004;2022-12-07T05:33:42;2.60;99.90
52565;DHT22;38460;53.106;7.004;2022-12-07T05:36:08;2.60;99.90
52565;DHT22;38460;53.106;7.004;2022-12-07T05:38:34;2.60;99.90
52565;DHT22;38460;53.106;7.004;2022-12-07T05:41:01;2.50;99.90
52565;DHT22;38460;53.106;7.004;2022-12-07T05:43:28;2.60;99.90
52565;DHT22;38460;53.106;7.004;2022-12-07T05:45:54;2.50;99.90
52565;DHT22;38460;53.106;7.004;2022-12-07T05:48:20;2.40;99.90
52565;DHT22;38460;53.106;7.004;2022-12-07T05:50:48;2.40;99.90
52565;DHT22;38460;53.106;7.004;2022-12-07T05:53:14;2.30;99.90
52565;DHT22;38460;53.106;7.004;2022-12-07T05:55:40;2.30;99.90
52565;DHT22;38460;53.106;7.004;2022-12-07T05:58:06;2.20;99.90
52565;DHT22;38460;53.106;7.004;2022-12-07T06:00:50;2.20;99.90
52565;DHT22;38460;53.106;7.004;2022-12-07T06:03:16;2.20;99.90
52565;DHT22;38460;53.106;7.004;2022-12-07T06:05:42;2.10;99.90
52565;DHT22;38460;53.106;7.004;2022-12-07T06:08:08;2.10;99.90
52565;DHT22;38460;53.106;7.004;2022-12-07T06:10:34;2.10;99.90
52565;DHT22;38460;53.106;7.004;2022-12-07T06:12:59;2.20;99.90
52565;DHT22;38460;53.106;7.004;2022-12-07T06:15:25;2.10;99.90
52565;DHT22;38460;53.106;7.004;2022-12-07T06:17:51;2.10;99.90
52565;DHT22;38460;53.106;7.004;2022-12-07T06:20:17;2.10;99.90
52565;DHT22;38460;53.106;7.004;2022-12-07T06:22:42;2.10;99.90
52565;DHT22;38460;53.106;7.004;2022-12-07T06:25:08;2.10;99.90
52565;DHT22;38460;53.106;7.004;2022-12-07T06:27:35;2.20;99.90
52565;DHT22;38460;53.106;7.004;2022-12-07T06:30:01;2.10;99.90
52565;DHT22;38460;53.106;7.004;2022-12-07T06:32:32;2.00;99.90
52565;DHT22;38460;53.106;7.004;2022-12-07T06:34:59;2.00;99.90
52565;DHT22;38460;53.106;7.004;2022-12-07T06:37:25;2.00;99.90
52565;DHT22;38460;53.106;7.004;2022-12-07T06:39:51;1.90;99.90
52565;DHT22;38460;53.106;7.004;2022-12-07T06:42:16;1.90;99.90
52565;DHT22;38460;53.106;7.004;2022-12-07T06:44:42;1.90;99.90
52565;DHT22;38460;53.106;7.004;2022-12-07T06:47:08;1.90;99.90
52565;DHT22;38460;53.106;7.004;2022-12-07T06:49:35;1.90;99.90
52565;DHT22;38460;53.106;7.004;2022-12-07T06:52:01;1.90;99.90
52565;DHT22;38460;53.106;7.004;2022-12-07T06:54:26;2.00;99.90
52565;DHT22;38460;53.106;7.004;2022-12-07T06:56:52;1.90;99.90
52565;DHT22;38460;53.106;7.004;2022-12-07T06:59:18;2.00;99.90
52565;DHT22;38460;53.106;7.004;2022-12-07T07:01:44;2.00;99.90
52565;DHT22;38460;53.106;7.004;2022-12-07T07:04:10;2.00;99.90
52565;DHT22;38460;53.106;7.004;2022-12-07T07:06:35;2.00;99.90
52565;DHT22;38460;53.106;7.004;2022-12-07T07:09:01;2.00;99.90
52565;DHT22;38460;53.106;7.004;2022-12-07T07:11:27;2.00;99.90
52565;DHT22;38460;53.106;7.004;2022-12-07T07:13:53;2.00;99.90
52565;DHT22;38460;53.106;7.004;2022-12-07T07:16:19;2.00;99.90
52565;DHT22;38460;53.106;7.004;2022-12-07T07:18:44;2.00;99.90
52565;DHT22;38460;53.106;7.004;2022-12-07T07:21:10;1.90;99.90
52565;DHT22;38460;53.106;7.004;2022-12-07T07:23:36;1.90;99.90
52565;DHT22;38460;53.106;7.004;2022-12-07T07:26:02;2.00;99.90
52565;DHT22;38460;53.106;7.004;2022-12-07T07:28:27;1.80;99.90
52565;DHT22;38460;53.106;7.004;2022-12-07T07:30:53;1.70;99.90
52565;DHT22;38460;53.106;7.004;2022-12-07T07:33:19;1.80;99.90
52565;DHT22;38460;53.106;7.004;2022-12-07T07:35:45;1.70;99.90
52565;DHT22;38460;53.106;7.004;2022-12-07T07:38:10;1.70;99.90
52565;DHT22;38460;53.106;7.004;2022-12-07T07:40:36;1.70;99.90
52565;DHT22;38460;53.106;7.004;2022-12-07T07:43:02;1.70;99.90
52565;DHT22;38460;53.106;7.004;2022-12-07T07:45:28;1.60;99.90
52565;DHT22;38460;53.106;7.004;2022-12-07T07:47:54;1.60;99.90
52565;DHT22;38460;53.106;7.004;2022-12-07T07:50:20;1.60;99.90
52565;DHT22;38460;53.106;7.004;2022-12-07T07:52:46;1.70;99.90
52565;DHT22;38460;53.106;7.004;2022-12-07T07:55:13;1.70;99.90
52565;DHT22;38460;53.106;7.004;2022-12-07T07:57:39;1.70;99.90
52565;DHT22;38460;53.106;7.004;2022-12-07T08:00:08;1.80;99.90
52565;DHT22;38460;53.106;7.004;2022-12-07T08:02:34;2.70;99.90
52565;DHT22;38460;53.106;7.004;2022-12-07T08:05:00;1.90;99.90
52565;DHT22;38460;53.106;7.004;2022-12-07T08:07:27;1.90;99.90
52565;DHT22;38460;53.106;7.004;2022-12-07T08:09:53;2.10;99.90
52565;DHT22;38460;53.106;7.004;2022-12-07T08:12:19;2.60;99.90
52565;DHT22;38460;53.106;7.004;2022-12-07T08:14:44;2.10;99.90
52565;DHT22;38460;53.106;7.004;2022-12-07T08:17:10;2.50;99.90
52565;DHT22;38460;53.106;7.004;2022-12-07T08:19:36;2.10;99.90
52565;DHT22;38460;53.106;7.004;2022-12-07T08:22:02;2.20;99.90
52565;DHT22;38460;53.106;7.004;2022-12-07T08:24:28;2.20;99.90
52565;DHT22;38460;53.106;7.004;2022-12-07T08:26:53;2.20;99.90
52565;DHT22;38460;53.106;7.004;2022-12-07T08:29:19;2.20;99.90
52565;DHT22;38460;53.106;7.004;2022-12-07T08:31:46;2.30;99.90
52565;DHT22;38460;53.106;7.004;2022-12-07T08:34:13;2.30;99.90
52565;DHT22;38460;53.106;7.004;2022-12-07T08:36:39;3.10;99.90
52565;DHT22;38460;53.106;7.004;2022-12-07T08:39:05;2.40;99.90
52565;DHT22;38460;53.106;7.004;2022-12-07T08:41:31;2.40;99.90
52565;DHT22;38460;53.106;7.004;2022-12-07T08:43:57;2.40;99.90
52565;DHT22;38460;53.106;7.004;2022-12-07T08:46:51;2.40;99.90
52565;DHT22;38460;53.106;7.004;2022-12-07T08:49:24;2.40;99.90
52565;DHT22;38460;53.106;7.004;2022-12-07T08:51:52;2.50;99.90
52565;DHT22;38460;53.106;7.004;2022-12-07T08:54:18;2.50;99.90
52565;DHT22;38460;53.106;7.004;2022-12-07T08:56:46;2.80;99.90
52565;DHT22;38460;53.106;7.004;2022-12-07T08:59:15;2.60;99.90
52565;DHT22;38460;53.106;7.004;2022-12-07T09:01:41;2.70;99.90
52565;DHT22;38460;53.106;7.004;2022-12-07T09:04:07;2.70;99.90
52565;DHT22;38460;53.106;7.004;2022-12-07T09:06:33;2.70;99.90
52565;DHT22;38460;53.106;7.004;2022-12-07T09:08:59;2.70;99.90
52565;DHT22;38460;53.106;7.004;2022-12-07T09:11:27;2.80;99.90
52565;DHT22;38460;53.106;7.004;2022-12-07T09:13:53;2.80;99.90
52565;DHT22;38460;53.106;7.004;2022-12-07T09:16:18;2.80;99.90
52565;DHT22;38460;53.106;7.004;2022-12-07T09:18:44;2.80;99.90
52565;DHT22;38460;53.106;7.004;2022-12-07T09:21:10;2.80;99.90
52565;DHT22;38460;53.106;7.004;2022-12-07T09:23:36;3.40;99.90
52565;DHT22;38460;53.106;7.004;2022-12-07T09:26:03;2.80;99.90
52565;DHT22;38460;53.106;7.004;2022-12-07T09:28:33;2.80;99.90
52565;DHT22;38460;53.106;7.004;2022-12-07T09:30:59;2.80;99.90
52565;DHT22;38460;53.106;7.004;2022-12-07T09:33:25;2.90;99.90
52565;DHT22;38460;53.106;7.004;2022-12-07T09:35:51;3.10;99.90
52565;DHT22;38460;53.106;7.004;2022-12-07T09:38:18;3.00;99.90
52565;DHT22;38460;53.106;7.004;2022-12-07T09:40:44;3.10;99.90
52565;DHT22;38460;53.106;7.004;2022-12-07T09:43:18;3.10;99.90
52565;DHT22;38460;53.106;7.004;2022-12-07T09:45:48;3.20;99.90
52565;DHT22;38460;53.106;7.004;2022-12-07T09:48:32;3.30;99.90
52565;DHT22;38460;53.106;7.004;2022-12-07T09:51:00;3.40;99.90
52565;DHT22;38460;53.106;7.004;2022-12-07T09:53:33;3.40;99.90
52565;DHT22;38460;53.106;7.004;2022-12-07T09:56:00;3.50;99.90
52565;DHT22;38460;53.106;7.004;2022-12-07T09:58:28;3.50;99.90
52565;DHT22;38460;53.106;7.004;2022-12-07T10:01:16;3.60;99.90
52565;DHT22;38460;53.106;7.004;2022-12-07T10:03:52;3.70;99.90
52565;DHT22;38460;53.106;7.004;2022-12-07T10:06:18;3.80;99.90
52565;DHT22;38460;53.106;7.004;2022-12-07T10:08:44;3.90;99.90
52565;DHT22;38460;53.106;7.004;2022-12-07T10:11:10;3.90;99.90
52565;DHT22;38460;53.106;7.004;2022-12-07T10:13:42;4.00;99.90
52565;DHT22;38460;53.106;7.004;2022-12-07T10:16:38;4.00;99.90
52565;DHT22;38460;53.106;7.004;2022-12-07T10:19:24;4.10;99.90
52565;DHT22;38460;53.106;7.004;2022-12-07T10:24:30;4.10;99.90
52565;DHT22;38460;53.106;7.004;2022-12-07T10:26:56;4.10;99.90
52565;DHT22;38460;53.106;7.004;2022-12-07T10:32:04;4.30;99.90
52565;DHT22;38460;53.106;7.004;2022-12-07T10:34:34;4.40;99.90
52565;DHT22;38460;53.106;7.004;2022-12-07T10:37:26;4.50;99.90
52565;DHT22;38460;53.106;7.004;2022-12-07T10:39:55;4.70;99.90
52565;DHT22;38460;53.106;7.004;2022-12-07T10:42:22;4.60;99.90
52565;DHT22;38460;53.106;7.004;2022-12-07T10:44:50;4.60;99.90
52565;DHT22;38460;53.106;7.004;2022-12-07T10:57:56;4.70;99.90
52565;DHT22;38460;53.106;7.004;2022-12-07T11:00:27;4.70;99.90
52565;DHT22;38460;53.106;7.004;2022-12-07T11:03:15;4.70;99.90
52565;DHT22;38460;53.106;7.004;2022-12-07T11:14:38;4.70;99.90
52565;DHT22;38460;53.106;7.004;2022-12-07T11:25:35;4.80;99.90
52565;DHT22;38460;53.106;7.004;2022-12-07T11:31:12;4.90;99.90
52565;DHT22;38460;53.106;7.004;2022-12-07T11:33:56;4.90;99.90
52565;DHT22;38460;53.106;7.004;2022-12-07T11:36:42;5.00;99.90
52565;DHT22;38460;53.106;7.004;2022-12-07T11:42:16;5.00;99.90
52565;DHT22;38460;53.106;7.004;2022-12-07T11:44:55;4.90;99.90
52565;DHT22;38460;53.106;7.004;2022-12-07T11:47:44;5.00;99.90
52565;DHT22;38460;53.106;7.004;2022-12-07T11:53:10;5.00;99.90
52565;DHT22;38460;53.106;7.004;2022-12-07T11:55:43;5.10;99.90
52565;DHT22;38460;53.106;7.004;2022-12-07T12:06:41;5.30;99.90
52565;DHT22;38460;53.106;7.004;2022-12-07T12:12:25;5.30;99.90
52565;DHT22;38460;53.106;7.004;2022-12-07T12:21:00;5.20;99.90
52565;DHT22;38460;53.106;7.004;2022-12-07T12:23:46;5.20;99.90
52565;DHT22;38460;53.106;7.004;2022-12-07T12:26:20;5.10;99.90
52565;DHT22;38460;53.106;7.004;2022-12-07T12:29:03;5.10;99.90
52565;DHT22;38460;53.106;7.004;2022-12-07T12:34:56;5.00;99.90
52565;DHT22;38460;53.106;7.004;2022-12-07T12:36:50;5.00;99.90
52565;DHT22;38460;53.106;7.004;2022-12-07T12:39:17;4.90;99.90
52565;DHT22;38460;53.106;7.004;2022-12-07T12:51:50;4.60;99.90
52565;DHT22;38460;53.106;7.004;2022-12-07T12:54:31;4.60;99.90
52565;DHT22;38460;53.106;7.004;2022-12-07T13:02:38;4.60;99.90
52565;DHT22;38460;53.106;7.004;2022-12-07T13:18:02;4.60;99.90
52565;DHT22;38460;53.106;7.004;2022-12-07T13:29:06;4.50;99.90
52565;DHT22;38460;53.106;7.004;2022-12-07T13:34:04;4.40;99.90
52565;DHT22;38460;53.106;7.004;2022-12-07T13:36:37;4.50;99.90
52565;DHT22;38460;53.106;7.004;2022-12-07T13:41:43;4.40;99.90
52565;DHT22;38460;53.106;7.004;2022-12-07T13:44:12;4.40;99.90
52565;DHT22;38460;53.106;7.004;2022-12-07T13:49:19;4.40;99.90
52565;DHT22;38460;53.106;7.004;2022-12-07T13:51:45;4.40;99.90
52565;DHT22;38460;53.106;7.004;2022-12-07T13:54:12;4.40;99.90
52565;DHT22;38460;53.106;7.004;2022-12-07T13:56:39;4.40;99.90
52565;DHT22;38460;53.106;7.004;2022-12-07T13:59:16;4.40;99.90
52565;DHT22;38460;53.106;7.004;2022-12-07T14:01:45;4.40;99.90
52565;DHT22;38460;53.106;7.004;2022-12-07T14:04:36;4.40;99.90
52565;DHT22;38460;53.106;7.004;2022-12-07T14:07:28;4.40;99.90
52565;DHT22;38460;53.106;7.004;2022-12-07T14:10:05;4.40;99.90
52565;DHT22;38460;53.106;7.004;2022-12-07T14:12:32;4.50;99.90
52565;DHT22;38460;53.106;7.004;2022-12-07T14:15:02;4.50;99.90
52565;DHT22;38460;53.106;7.004;2022-12-07T14:17:29;4.40;99.90
52565;DHT22;38460;53.106;7.004;2022-12-07T14:19:57;4.40;99.90
52565;DHT22;38460;53.106;7.004;2022-12-07T14:22:27;4.40;99.90
52565;DHT22;38460;53.106;7.004;2022-12-07T14:25:16;4.40;99.90
52565;DHT22;38460;53.106;7.004;2022-12-07T14:30:23;4.30;99.90
52565;DHT22;38460;53.106;7.004;2022-12-07T14:33:04;4.20;99.90
52565;DHT22;38460;53.106;7.004;2022-12-07T14:35:31;4.20;99.90
52565;DHT22;38460;53.106;7.004;2022-12-07T14:37:57;4.10;99.90
52565;DHT22;38460;53.106;7.004;2022-12-07T14:40:25;4.10;99.90
52565;DHT22;38460;53.106;7.004;2022-12-07T14:43:09;4.00;99.90
52565;DHT22;38460;53.106;7.004;2022-12-07T14:45:36;4.00;99.90
52565;DHT22;38460;53.106;7.004;2022-12-07T14:48:01;3.90;99.90
52565;DHT22;38460;53.106;7.004;2022-12-07T14:50:27;3.80;99.90
52565;DHT22;38460;53.106;7.004;2022-12-07T14:52:59;3.80;99.90
52565;DHT22;38460;53.106;7.004;2022-12-07T14:55:29;3.90;99.90
52565;DHT22;38460;53.106;7.004;2022-12-07T14:57:55;3.60;99.90
52565;DHT22;38460;53.106;7.004;2022-12-07T15:00:24;3.60;99.90
52565;DHT22;38460;53.106;7.004;2022-12-07T15:02:51;3.60;99.90
52565;DHT22;38460;53.106;7.004;2022-12-07T15:05:17;3.50;99.90
52565;DHT22;38460;53.106;7.004;2022-12-07T15:07:45;3.50;99.90
52565;DHT22;38460;53.106;7.004;2022-12-07T15:10:20;3.40;99.90
52565;DHT22;38460;53.106;7.004;2022-12-07T15:12:46;3.40;99.90
52565;DHT22;38460;53.106;7.004;2022-12-07T15:15:13;3.40;99.90
52565;DHT22;38460;53.106;7.004;2022-12-07T15:17:38;3.40;99.90
52565;DHT22;38460;53.106;7.004;2022-12-07T15:20:05;3.30;99.90
52565;DHT22;38460;53.106;7.004;2022-12-07T15:22:31;3.30;99.90
52565;DHT22;38460;53.106;7.004;2022-12-07T15:24:57;3.30;99.90
52565;DHT22;38460;53.106;7.004;2022-12-07T15:27:23;3.30;99.90
52565;DHT22;38460;53.106;7.004;2022-12-07T15:29:49;3.20;99.90
52565;DHT22;38460;53.106;7.004;2022-12-07T15:32:15;3.20;99.90
52565;DHT22;38460;53.106;7.004;2022-12-07T15:34:40;3.20;99.90
52565;DHT22;38460;53.106;7.004;2022-12-07T15:37:07;3.20;99.90
52565;DHT22;38460;53.106;7.004;2022-12-07T15:39:33;3.20;99.90
52565;DHT22;38460;53.106;7.004;2022-12-07T15:41:59;3.10;99.90
52565;DHT22;38460;53.106;7.004;2022-12-07T15:44:24;3.50;99.90
52565;DHT22;38460;53.106;7.004;2022-12-07T15:47:09;3.10;99.90
52565;DHT22;38460;53.106;7.004;2022-12-07T15:49:35;3.30;99.90
52565;DHT22;38460;53.106;7.004;2022-12-07T15:52:00;3.10;99.90
52565;DHT22;38460;53.106;7.004;2022-12-07T15:54:28;3.00;99.90
52565;DHT22;38460;53.106;7.004;2022-12-07T15:56:55;3.00;99.90
52565;DHT22;38460;53.106;7.004;2022-12-07T15:59:21;3.10;99.90
52565;DHT22;38460;53.106;7.004;2022-12-07T16:01:47;3.00;99.90
52565;DHT22;38460;53.106;7.004;2022-12-07T16:04:12;3.00;99.90
52565;DHT22;38460;53.106;7.004;2022-12-07T16:06:38;3.00;99.90
52565;DHT22;38460;53.106;7.004;2022-12-07T16:09:04;3.00;99.90
52565;DHT22;38460;53.106;7.004;2022-12-07T16:11:31;3.00;99.90
52565;DHT22;38460;53.106;7.004;2022-12-07T16:13:57;3.00;99.90
52565;DHT22;38460;53.106;7.004;2022-12-07T16:16:23;2.90;99.90
52565;DHT22;38460;53.106;7.004;2022-12-07T16:18:49;2.90;99.90
52565;DHT22;38460;53.106;7.004;2022-12-07T16:21:16;3.00;99.90
52565;DHT22;38460;53.106;7.004;2022-12-07T16:23:43;2.90;99.90
52565;DHT22;38460;53.106;7.004;2022-12-07T16:26:14;2.90;99.90
52565;DHT22;38460;53.106;7.004;2022-12-07T16:28:42;2.90;99.90
52565;DHT22;38460;53.106;7.004;2022-12-07T16:31:11;2.90;99.90
52565;DHT22;38460;53.106;7.004;2022-12-07T16:33:38;2.90;99.90
52565;DHT22;38460;53.106;7.004;2022-12-07T16:36:06;2.90;99.90
52565;DHT22;38460;53.106;7.004;2022-12-07T16:38:32;2.90;99.90
52565;DHT22;38460;53.106;7.004;2022-12-07T16:40:59;2.80;99.90
52565;DHT22;38460;53.106;7.004;2022-12-07T16:43:24;2.80;99.90
52565;DHT22;38460;53.106;7.004;2022-12-07T16:45:50;2.80;99.90
52565;DHT22;38460;53.106;7.004;2022-12-07T16:48:17;2.80;99.90
52565;DHT22;38460;53.106;7.004;2022-12-07T16:50:43;2.80;99.90
52565;DHT22;38460;53.106;7.004;2022-12-07T16:53:10;2.80;99.90
52565;DHT22;38460;53.106;7.004;2022-12-07T16:55:40;2.80;99.90
52565;DHT22;38460;53.106;7.004;2022-12-07T16:58:06;2.80;99.90
52565;DHT22;38460;53.106;7.004;2022-12-07T17:00:32;2.80;99.90
52565;DHT22;38460;53.106;7.004;2022-12-07T17:02:59;2.80;99.90
52565;DHT22;38460;53.106;7.004;2022-12-07T17:05:25;2.80;99.90
52565;DHT22;38460;53.106;7.004;2022-12-07T17:07:53;2.80;99.90
52565;DHT22;38460;53.106;7.004;2022-12-07T17:10:20;2.80;99.90
52565;DHT22;38460;53.106;7.004;2022-12-07T17:12:45;2.80;99.90
52565;DHT22;38460;53.106;7.004;2022-12-07T17:15:11;2.80;99.90
52565;DHT22;38460;53.106;7.004;2022-12-07T17:17:55;2.80;99.90
52565;DHT22;38460;53.106;7.004;2022-12-07T17:20:23;2.80;99.90
52565;DHT22;38460;53.106;7.004;2022-12-07T17:22:50;2.80;99.90
52565;DHT22;38460;53.106;7.004;2022-12-07T17:25:16;2.80;99.90
52565;DHT22;38460;53.106;7.004;2022-12-07T17:27:43;2.80;99.90
52565;DHT22;38460;53.106;7.004;2022-12-07T17:30:11;2.80;99.90
52565;DHT22;38460;53.106;7.004;2022-12-07T17:32:37;2.80;99.90
52565;DHT22;38460;53.106;7.004;2022-12-07T17:35:03;2.70;99.90
52565;DHT22;38460;53.106;7.004;2022-12-07T17:37:31;2.70;99.90
52565;DHT22;38460;53.106;7.004;2022-12-07T17:39:57;2.70;99.90
52565;DHT22;38460;53.106;7.004;2022-12-07T17:42:26;2.70;99.90
52565;DHT22;38460;53.106;7.004;2022-12-07T17:45:02;2.70;99.90
52565;DHT22;38460;53.106;7.004;2022-12-07T17:47:28;3.20;99.90
52565;DHT22;38460;53.106;7.004;2022-12-07T17:49:54;2.70;99.90
52565;DHT22;38460;53.106;7.004;2022-12-07T17:52:20;2.70;99.90
52565;DHT22;38460;53.106;7.004;2022-12-07T17:55:21;2.70;99.90
52565;DHT22;38460;53.106;7.004;2022-12-07T17:57:46;2.70;99.90
52565;DHT22;38460;53.106;7.004;2022-12-07T18:00:13;2.70;99.90
52565;DHT22;38460;53.106;7.004;2022-12-07T18:02:39;2.70;99.90
52565;DHT22;38460;53.106;7.004;2022-12-07T18:05:08;3.10;99.90
52565;DHT22;38460;53.106;7.004;2022-12-07T18:07:34;2.70;99.90
52565;DHT22;38460;53.106;7.004;2022-12-07T18:09:59;2.70;99.90
52565;DHT22;38460;53.106;7.004;2022-12-07T18:12:25;2.70;99.90
52565;DHT22;38460;53.106;7.004;2022-12-07T18:14:51;2.70;99.90
52565;DHT22;38460;53.106;7.004;2022-12-07T18:17:18;2.70;99.90
52565;DHT22;38460;53.106;7.004;2022-12-07T18:19:44;2.80;99.90